MAPA DE AEROPUERTO

INFORMACIÓN METAR y TAF

METAR FOR LEBL
ADDS - METARS form results

(1657 UTC 23 October 2021)
Data provider http://aviationweather.gov/metar/data/
 
METAR text: LEBL 231630Z 20003KT 160V230 9999 FEW040 18/12 Q1021 NOSIG
Conditions at: LEBL (BARCELONA AIRPOR, ES) observed 1630 UTC 23 October 2021
Temperature: 18.0°C (64°F)
Dewpoint: 12.0°C (54°F) [RH = 68%]
Pressure (altimeter): 30.15 inches Hg (1021.0 mb)
Winds: from the SSW (200 degrees) at 3 MPH (3 knots; 1.5 m/s)
Visibility: 6 or more miles (10+ km)
Ceiling: at least 12,000 feet AGL
Clouds: few clouds at 4000 feet AGL
Weather: no significant weather observed at this time

METAR text: LEBL 231600Z 18005KT 150V210 9999 FEW040 18/11 Q1021 NOSIG
Conditions at: LEBL (BARCELONA AIRPOR, ES) observed 1600 UTC 23 October 2021
Temperature: 18.0°C (64°F)
Dewpoint: 11.0°C (52°F) [RH = 64%]
Pressure (altimeter): 30.15 inches Hg (1021.0 mb)
Winds: from the S (180 degrees) at 6 MPH (5 knots; 2.6 m/s)
Visibility: 6 or more miles (10+ km)
Ceiling: at least 12,000 feet AGL
Clouds: few clouds at 4000 feet AGL
Weather: no significant weather observed at this time

Forecast for: LEBL (BARCELONA AIRPOR, ES)
Text: TAF LEBL 231100Z 2312/2412 33009KT 9999 FEW040 TX19/2314Z TN13/2406Z
Forecast period: 1200 UTC 23 October 2021 to 0000 UTC 24 October 2021
Forecast type: FROM: standard forecast or significant change
Winds: from the NNW (330 degrees) at 10 MPH (9 knots; 4.6 m/s)
Visibility: 6 or more miles (10+ km)
Ceiling: at least 12,000 feet AGL
Clouds: few clouds at 4000 feet AGL
Weather: no significant weather forecast for this period
Text: TEMPO 2312/2316 18009KT
Forecast period: 1200 to 1600 UTC 23 October 2021
Forecast type: TEMPORARY: The following changes expected for less than half the time period
Winds: from the S (180 degrees) at 10 MPH (9 knots; 4.6 m/s)
Visibility: missing
Ceiling: unknown
Clouds: missing
Weather: no significant weather forecast for this period
Text: BECMG 2400/2402 34010KT
Forecast period: 0000 to 1200 UTC 24 October 2021
Forecast type: BECOMING: Conditions expected to become as follows by 0200 UTC 24 October 2021
Winds: from the NNW (340 degrees) at 12 MPH (10 knots; 5.1 m/s)
Visibility: 6 or more miles (10+ km)
Ceiling: at least 12,000 feet AGL
Clouds: few clouds at 4000 feet AGL
Weather: no significant weather forecast for this period